Time;durP1;ratioP1;P1;durP2;ratioP2;P2;SDS_P1;SDS_P2;PMS_P1;PMS_P2;Temp;Humidity;BMP_temperature;BMP_pressure;BME280_temperature;BME280_humidity;BME280_pressure;Samples;Min_cycle;Max_cycle;Signal;HPM_P1;HPM_P2
2022/05/30 00:01:09;;;;;;;6.17;5.42;;;;;;;10.12;82.35;95971.38;1758986;80;21406;-82
2022/05/30 00:03:35;;;;;;;9.15;6.05;;;;;;;10.08;82.25;95970.93;1766393;80;20967;-82
2022/05/30 00:06:01;;;;;;;7.22;5.47;;;;;;;10.06;82.64;95974.22;1765656;80;20939;-82
2022/05/30 00:08:26;;;;;;;6.30;5.70;;;;;;;10.03;82.54;95969.91;1774995;80;20948;-82
2022/05/30 00:10:53;;;;;;;8.10;6.87;;;;;;;10.04;82.51;95972.80;1758951;80;21394;-82
2022/05/30 00:13:18;;;;;;;7.03;5.30;;;;;;;10.01;82.63;95971.89;1777934;80;21026;-82
2022/05/30 00:15:44;;;;;;;6.05;5.45;;;;;;;9.99;82.44;95972.08;1758888;80;21015;-82
2022/05/30 00:18:11;;;;;;;5.95;5.45;;;;;;;10.00;82.78;95971.08;1780780;80;21027;-82
2022/05/30 00:20:37;;;;;;;7.83;5.72;;;;;;;10.01;82.92;95971.39;1758814;80;21035;-82
2022/05/30 00:23:03;;;;;;;6.22;5.62;;;;;;;10.04;83.15;95965.81;1769944;80;21110;-82
2022/05/30 00:25:29;;;;;;;6.00;5.42;;;;;;;10.05;82.97;95962.73;1760329;80;21423;-82
2022/05/30 00:27:55;;;;;;;7.70;5.65;;;;;;;10.07;82.99;95965.93;1759100;80;21043;-82
2022/05/30 00:30:22;;;;;;;6.17;5.58;;;;;;;10.08;82.89;95964.44;1780541;80;21088;-82
2022/05/30 00:32:48;;;;;;;7.53;6.10;;;;;;;10.08;82.79;95966.23;1760480;80;21386;-83
2022/05/30 00:35:14;;;;;;;6.75;5.87;;;;;;;10.10;83.07;95968.17;1780831;80;20920;-83
2022/05/30 00:37:39;;;;;;;6.80;5.97;;;;;;;10.10;82.83;95962.98;1759052;80;20971;-82
2022/05/30 00:40:06;;;;;;;6.83;5.97;;;;;;;10.09;82.82;95962.18;1778450;80;20951;-82
2022/05/30 00:42:34;;;;;;;6.25;5.65;;;;;;;10.04;82.84;95959.33;1779255;80;20936;-82
2022/05/30 00:44:59;;;;;;;7.92;6.45;;;;;;;10.00;82.71;95955.52;1761812;80;21282;-82
2022/05/30 00:47:25;;;;;;;6.55;5.80;;;;;;;9.99;82.70;95953.91;1780499;80;21010;-82
2022/05/30 00:49:51;;;;;;;5.97;5.37;;;;;;;10.01;82.78;95950.62;1769416;80;21015;-82
2022/05/30 00:52:21;;;;;;;8.28;5.87;;;;;;;10.00;82.92;95956.81;1789870;80;20970;-82
2022/05/30 00:54:54;;;;;;;7.20;5.53;;;;;;;9.97;82.92;95955.89;1781030;80;21018;-82
2022/05/30 00:57:22;;;;;;;6.83;5.92;;;;;;;9.92;83.05;95955.16;1784901;80;21351;-82
2022/05/30 01:00:11;;;;;;;6.67;5.85;;;;;;;9.83;82.88;95947.69;1766304;80;21015;-82
2022/05/30 01:02:39;;;;;;;5.50;5.00;;;;;;;9.81;83.18;95947.88;1779286;80;20948;-82
2022/05/30 01:07:52;;;;;;;7.78;4.67;;;;;;;9.87;83.45;95935.94;1749684;80;20952;-82
2022/05/30 01:10:20;;;;;;;8.35;5.08;;;;;;;9.85;83.17;95931.44;1750262;80;20925;-82
2022/05/30 01:12:56;;;;;;;7.60;5.47;;;;;;;9.77;82.94;95929.79;1747443;80;20940;-82
2022/05/30 01:15:29;;;;;;;7.17;5.28;;;;;;;9.75;83.23;95921.86;1752244;80;21299;-82
2022/05/30 01:18:17;;;;;;;7.37;5.55;;;;;;;9.72;83.26;95920.45;1774055;80;21447;-82
2022/05/30 01:21:21;;;;;;;7.12;5.10;;;;;;;9.70;83.43;95919.84;1758432;80;21491;-82
2022/05/30 01:24:14;;;;;;;4.40;4.00;;;;;;;9.69;83.48;95917.44;1756670;80;20932;-81
2022/05/30 01:27:18;;;;;;;4.37;3.98;;;;;;;9.66;83.51;95920.41;1731014;80;20999;-82
2022/05/30 01:29:51;;;;;;;7.75;4.83;;;;;;;9.63;83.54;95921.09;1762922;80;21015;-84
2022/05/30 01:32:21;;;;;;;5.78;4.90;;;;;;;9.60;83.47;95916.28;1762299;80;20924;-84
2022/05/30 01:34:46;;;;;;;5.35;4.67;;;;;;;9.61;83.74;95914.00;1769811;80;21064;-84
2022/05/30 01:37:12;;;;;;;4.60;4.03;;;;;;;9.59;83.67;95916.44;1779816;80;21409;-84
2022/05/30 01:39:38;;;;;;;5.35;4.08;;;;;;;9.60;84.14;95914.19;1780020;80;21007;-84
2022/05/30 01:42:05;;;;;;;5.50;4.10;;;;;;;9.55;83.89;95916.02;1778170;80;21024;-82
2022/05/30 01:44:31;;;;;;;4.37;3.98;;;;;;;9.55;83.95;95917.31;1768329;80;20965;-82
2022/05/30 01:46:57;;;;;;;5.37;4.67;;;;;;;9.54;84.07;95907.93;1787006;80;20965;-82
2022/05/30 01:49:22;;;;;;;4.20;3.80;;;;;;;9.53;84.13;95910.71;1782751;80;20945;-82
2022/05/30 01:51:48;;;;;;;4.55;4.15;;;;;;;9.54;84.27;95914.91;1777973;80;20991;-82
2022/05/30 01:54:14;;;;;;;5.20;4.22;;;;;;;9.55;84.43;95906.94;1735297;81;20944;-82
2022/05/30 01:56:40;;;;;;;4.53;3.95;;;;;;;9.55;84.35;95908.73;1777600;80;21331;-82
2022/05/30 01:59:05;;;;;;;4.47;3.90;;;;;;;9.57;84.23;95912.74;1761851;80;20956;-82
2022/05/30 02:01:31;;;;;;;4.25;3.45;;;;;;;9.56;84.09;95909.04;1752904;79;21031;-81
2022/05/30 02:03:57;;;;;;;5.80;3.95;;;;;;;9.55;84.11;95908.73;1760197;80;20943;-82
2022/05/30 02:06:25;;;;;;;4.50;4.10;;;;;;;9.56;84.18;95909.84;1756674;80;21300;-82
2022/05/30 02:08:51;;;;;;;5.08;4.28;;;;;;;9.59;84.41;95907.36;1762291;80;20931;-82
2022/05/30 02:11:17;;;;;;;10.23;7.37;;;;;;;9.61;84.49;95907.52;1748813;80;20992;-82
2022/05/30 02:13:43;;;;;;;6.75;5.90;;;;;;;9.65;84.39;95903.23;1759451;80;20964;-82
2022/05/30 02:18:56;;;;;;;4.97;4.47;;;;;;;9.74;84.18;95911.18;1780595;80;20960;-82
2022/05/30 02:21:22;;;;;;;5.15;4.58;;;;;;;9.80;84.34;95899.58;1775258;80;20975;-82
2022/05/30 02:23:48;;;;;;;7.55;4.53;;;;;;;9.84;84.28;95902.59;1758817;80;21038;-85
2022/05/30 02:26:13;;;;;;;7.12;4.42;;;;;;;9.82;83.91;95898.09;1787545;80;20942;-83
2022/05/30 02:28:39;;;;;;;8.28;6.50;;;;;;;9.80;83.95;95902.16;1784268;80;20980;-83
2022/05/30 02:31:05;;;;;;;7.00;4.80;;;;;;;9.79;83.94;95897.97;1779874;80;21005;-83
2022/05/30 02:38:59;;;;;;;5.05;4.55;;;;;;;9.81;84.05;95913.34;1789912;80;20972;-83
2022/05/30 02:41:25;;;;;;;4.92;4.37;;;;;;;9.83;84.05;95901.78;1787463;80;21046;-83
2022/05/30 02:43:51;;;;;;;6.67;4.58;;;;;;;9.84;84.13;95900.80;1763433;80;21370;-84
2022/05/30 02:46:17;;;;;;;5.40;4.90;;;;;;;9.85;84.17;95897.70;1789805;80;20967;-83
2022/05/30 02:48:43;;;;;;;3.90;3.50;;;;;;;9.85;83.82;95902.89;1780357;80;20957;-83
2022/05/30 02:51:09;;;;;;;5.33;4.80;;;;;;;9.83;83.54;95902.28;1778128;80;20947;-83
2022/05/30 02:53:35;;;;;;;4.33;3.83;;;;;;;9.81;83.56;95904.27;1779992;80;21376;-83
2022/05/30 02:56:01;;;;;;;4.80;4.28;;;;;;;9.81;83.58;95899.87;1758591;80;20994;-82
2022/05/30 02:58:27;;;;;;;5.00;4.42;;;;;;;9.79;83.49;95894.58;1773691;80;21079;-82
2022/05/30 03:00:53;;;;;;;4.65;4.03;;;;;;;9.79;83.69;95908.84;1791756;79;21106;-82
2022/05/30 03:03:19;;;;;;;4.85;4.35;;;;;;;9.78;84.04;95907.24;1766433;79;21006;-82
2022/05/30 03:05:46;;;;;;;4.37;4.00;;;;;;;9.80;83.91;95901.37;1743630;81;21068;-82
2022/05/30 03:08:12;;;;;;;4.62;3.80;;;;;;;9.83;84.07;95904.88;1756225;80;21442;-82
2022/05/30 03:10:37;;;;;;;5.12;4.72;;;;;;;9.85;84.12;95897.70;1769234;80;21006;-82
2022/05/30 03:13:04;;;;;;;5.87;4.50;;;;;;;9.82;83.26;95907.16;1753763;80;20943;-82
2022/05/30 03:15:30;;;;;;;5.37;4.87;;;;;;;9.71;83.29;95915.45;1767056;80;20952;-82
2022/05/30 03:17:55;;;;;;;5.62;4.80;;;;;;;9.59;83.63;95913.84;1735578;80;20979;-82
2022/05/30 03:20:21;;;;;;;5.95;5.45;;;;;;;9.59;84.02;95918.54;1761983;80;20969;-82
2022/05/30 03:22:47;;;;;;;7.40;6.12;;;;;;;9.53;83.76;95920.59;1752556;81;21424;-82
2022/05/30 03:25:14;;;;;;;7.65;5.53;;;;;;;9.52;83.82;95922.87;1788625;79;21002;-82
2022/05/30 03:27:40;;;;;;;5.70;5.12;;;;;;;9.55;84.12;95920.41;1769813;79;21002;-82
2022/05/30 03:30:07;;;;;;;6.45;5.83;;;;;;;9.58;83.97;95923.42;1776727;78;21049;-82
2022/05/30 03:32:33;;;;;;;6.65;6.05;;;;;;;9.61;84.03;95924.38;1778517;80;21340;-82
2022/05/30 03:34:59;;;;;;;7.30;6.70;;;;;;;9.65;84.30;95929.18;1756983;80;20983;-82
2022/05/30 03:37:26;;;;;;;7.37;6.67;;;;;;;9.67;84.42;95928.00;1769366;80;20953;-82
2022/05/30 03:39:52;;;;;;;7.95;7.15;;;;;;;9.67;84.53;95922.01;1747868;81;21055;-82
2022/05/30 03:42:18;;;;;;;7.40;6.70;;;;;;;9.67;84.43;95925.90;1747838;81;20976;-83
2022/05/30 03:44:44;;;;;;;7.87;7.10;;;;;;;9.67;84.45;95937.08;1754039;80;20915;-82
2022/05/30 03:47:11;;;;;;;7.97;7.17;;;;;;;9.69;84.41;95927.81;1760441;80;21433;-82
2022/05/30 03:49:37;;;;;;;8.68;7.87;;;;;;;9.70;84.55;95931.52;1771903;80;20999;-82
2022/05/30 03:52:03;;;;;;;8.40;7.70;;;;;;;9.70;84.54;95930.22;1778026;80;20972;-82
2022/05/30 03:54:30;;;;;;;8.33;7.53;;;;;;;9.70;84.35;95925.02;1775777;80;21070;-82
2022/05/30 03:56:55;;;;;;;8.60;7.78;;;;;;;9.67;84.29;95925.90;1775334;80;21099;-83
2022/05/30 03:59:21;;;;;;;8.80;6.80;;;;;;;9.63;84.39;95923.69;1760361;80;21420;-82
2022/05/30 04:01:47;;;;;;;7.15;6.55;;;;;;;9.62;84.29;95923.37;1727800;83;21133;-82
2022/05/30 04:04:13;;;;;;;7.72;6.95;;;;;;;9.63;84.29;95932.77;1730819;80;20975;-82
2022/05/30 04:06:39;;;;;;;7.72;6.92;;;;;;;9.65;84.38;95923.99;1730784;80;21398;-82
2022/05/30 04:09:06;;;;;;;7.12;6.42;;;;;;;9.70;84.68;95928.12;1728945;80;21042;-82
2022/05/30 04:11:31;;;;;;;7.62;6.92;;;;;;;9.75;84.51;95925.75;1735699;82;21394;-82
2022/05/30 04:13:57;;;;;;;7.75;7.05;;;;;;;9.78;84.46;95930.09;1737613;81;20962;-84
2022/05/30 04:16:23;;;;;;;9.08;8.30;;;;;;;9.79;84.55;95929.11;1741073;81;20994;-84
2022/05/30 04:18:49;;;;;;;8.53;7.83;;;;;;;9.80;84.42;95922.13;1737205;81;20966;-84
2022/05/30 04:21:14;;;;;;;7.80;7.10;;;;;;;9.85;84.60;95924.45;1748811;80;21417;-84
2022/05/30 04:23:42;;;;;;;8.55;7.83;;;;;;;9.91;84.66;95924.98;1730613;81;21007;-84
2022/05/30 04:26:13;;;;;;;7.95;7.25;;;;;;;9.96;84.38;95919.25;1748697;81;20989;-83
2022/05/30 04:28:38;;;;;;;8.28;7.47;;;;;;;10.00;84.52;95919.67;1739771;81;20931;-84
2022/05/30 04:31:06;;;;;;;7.40;6.30;;;;;;;9.98;84.52;95912.08;1737436;80;21651;-84
2022/05/30 04:33:33;;;;;;;6.97;6.28;;;;;;;9.96;84.33;95908.06;1753920;82;21023;-84
2022/05/30 04:36:01;;;;;;;7.42;6.75;;;;;;;9.96;84.31;95915.86;1728232;80;21042;-84
2022/05/30 04:38:27;;;;;;;8.45;6.60;;;;;;;9.98;84.34;95913.88;1734918;80;21095;-84
2022/05/30 04:40:53;;;;;;;6.90;6.30;;;;;;;10.02;84.40;95914.59;1738639;80;20968;-84
2022/05/30 04:43:19;;;;;;;6.40;5.80;;;;;;;10.04;83.84;95920.89;1742251;80;21070;-84
2022/05/30 04:45:45;;;;;;;6.10;5.50;;;;;;;10.02;83.92;95922.38;1724250;81;21005;-84
2022/05/30 04:48:11;;;;;;;6.83;5.67;;;;;;;10.02;83.94;95918.48;1727361;81;20946;-84
2022/05/30 04:50:37;;;;;;;6.12;5.30;;;;;;;10.06;83.94;95918.41;1709535;81;20958;-84
2022/05/30 04:53:04;;;;;;;7.25;5.97;;;;;;;10.08;84.09;95920.31;1721646;83;21090;-84
2022/05/30 04:55:30;;;;;;;10.58;7.12;;;;;;;10.12;84.03;95913.77;1745905;80;20938;-84
2022/05/30 04:57:55;;;;;;;7.37;6.75;;;;;;;10.15;84.11;95921.17;1759670;80;21104;-84
2022/05/30 05:00:24;;;;;;;9.35;7.50;;;;;;;10.12;83.68;95912.47;1775033;79;21003;-84
2022/05/30 05:02:53;;;;;;;8.60;7.80;;;;;;;10.13;83.94;95912.78;1797336;79;21341;-84
2022/05/30 05:05:20;;;;;;;10.50;8.60;;;;;;;10.08;83.96;95916.42;1795159;80;20996;-86
2022/05/30 05:07:55;;;;;;;7.75;6.72;;;;;;;10.12;84.31;95921.56;1755670;80;20974;-87
2022/05/30 05:10:29;;;;;;;7.17;6.47;;;;;;;10.14;83.73;95918.77;1756867;80;20995;-85
2022/05/30 05:12:55;;;;;;;7.20;6.20;;;;;;;10.17;83.54;95923.58;1786608;80;20935;-85
2022/05/30 05:15:21;;;;;;;5.85;5.28;;;;;;;10.19;83.34;95921.59;1792141;80;20978;-85
2022/05/30 05:17:46;;;;;;;6.35;5.75;;;;;;;10.14;82.98;95919.58;1788881;80;20954;-85
2022/05/30 05:20:12;;;;;;;6.60;5.72;;;;;;;10.13;83.59;95916.67;1771159;80;20961;-85
2022/05/30 05:22:38;;;;;;;6.22;5.45;;;;;;;10.16;83.84;95918.08;1784721;79;20942;-85
2022/05/30 05:25:05;;;;;;;6.05;4.60;;;;;;;10.18;83.66;95924.69;1787341;79;21320;-84
2022/05/30 05:27:30;;;;;;;4.67;4.30;;;;;;;10.22;83.63;95929.83;1800750;78;20899;-85
2022/05/30 05:29:56;;;;;;;4.67;3.80;;;;;;;10.25;83.21;95930.44;1758734;80;21004;-85
2022/05/30 05:32:22;;;;;;;4.37;3.98;;;;;;;10.29;83.18;95931.19;1780095;80;21041;-85
2022/05/30 05:34:50;;;;;;;4.25;3.02;;;;;;;10.34;83.21;95930.61;1771547;80;20961;-85
2022/05/30 05:37:16;;;;;;;5.33;3.80;;;;;;;10.41;82.97;95940.05;1741892;80;21378;-85
2022/05/30 05:39:42;;;;;;;6.08;3.83;;;;;;;10.46;83.44;95938.17;1777399;80;20953;-85
2022/05/30 05:42:08;;;;;;;3.65;3.30;;;;;;;10.46;83.33;95942.07;1770071;80;21006;-85
2022/05/30 05:44:34;;;;;;;3.55;3.25;;;;;;;10.46;82.67;95944.67;1780733;80;20970;-84
2022/05/30 05:47:00;;;;;;;5.70;3.45;;;;;;;10.50;82.80;95944.09;1777913;80;20974;-85
2022/05/30 05:49:26;;;;;;;4.53;3.80;;;;;;;10.55;83.20;95947.40;1767776;80;21366;-85
2022/05/30 05:51:57;;;;;;;3.90;3.20;;;;;;;10.58;83.49;95950.94;1761088;80;20948;-85
2022/05/30 05:54:23;;;;;;;4.20;3.40;;;;;;;10.55;82.41;95947.90;1769081;80;20960;-85
2022/05/30 05:56:49;;;;;;;4.65;3.80;;;;;;;10.50;82.59;95944.09;1762004;80;21058;-85
2022/05/30 05:59:16;;;;;;;6.00;3.55;;;;;;;10.44;82.71;95941.46;1760513;80;21456;-85
2022/05/30 06:01:42;;;;;;;4.62;4.22;;;;;;;10.38;82.32;95941.71;1769862;80;21043;-85
2022/05/30 06:04:08;;;;;;;4.40;3.60;;;;;;;10.37;82.85;95945.30;1753488;80;21438;-87
2022/05/30 06:06:34;;;;;;;4.85;3.90;;;;;;;10.39;82.68;95954.20;1755318;80;20980;-87
2022/05/30 06:09:03;;;;;;;4.60;3.80;;;;;;;10.34;82.34;95953.48;1769689;80;21026;-85
2022/05/30 06:11:29;;;;;;;5.80;3.90;;;;;;;10.33;82.55;95962.27;1786245;80;20966;-85
2022/05/30 06:13:55;;;;;;;3.62;3.27;;;;;;;10.33;82.84;95964.06;1787730;80;21007;-85
2022/05/30 06:16:26;;;;;;;4.90;3.52;;;;;;;10.28;81.99;95971.63;1784029;80;20942;-86
2022/05/30 06:18:55;;;;;;;3.42;3.00;;;;;;;10.30;82.29;95969.14;1787625;80;20952;-85
2022/05/30 06:21:23;;;;;;;5.37;3.27;;;;;;;10.48;82.36;95964.26;1765652;80;21038;-85
2022/05/30 06:23:50;;;;;;;3.77;3.15;;;;;;;10.64;82.27;95963.65;1772038;80;21356;-85
2022/05/30 06:26:15;;;;;;;2.98;2.55;;;;;;;10.77;82.87;95967.62;1755890;80;20959;-86
2022/05/30 06:28:41;;;;;;;3.75;2.62;;;;;;;10.83;82.61;95968.94;1753054;80;20992;-86
2022/05/30 06:31:14;;;;;;;3.12;2.40;;;;;;;10.88;81.96;95974.05;1772383;80;20938;-85
2022/05/30 06:33:41;;;;;;;2.80;2.00;;;;;;;10.89;82.04;95970.45;1764846;80;21007;-85
2022/05/30 06:36:09;;;;;;;2.75;2.55;;;;;;;10.91;81.42;95965.89;1760960;80;20947;-85
2022/05/30 06:38:35;;;;;;;3.05;2.40;;;;;;;10.88;81.47;95966.25;1765037;80;21003;-85
2022/05/30 06:41:17;;;;;;;2.92;2.55;;;;;;;10.81;81.82;95969.63;1777191;80;21392;-85
2022/05/30 06:43:44;;;;;;;3.15;2.85;;;;;;;10.77;81.68;95968.92;1757346;80;21430;-85
2022/05/30 06:46:10;;;;;;;3.45;3.15;;;;;;;10.76;81.42;95975.91;1781932;80;21039;-85
2022/05/30 06:48:36;;;;;;;6.67;3.17;;;;;;;10.79;81.65;95979.42;1786610;80;21029;-85
2022/05/30 06:51:05;;;;;;;3.72;3.17;;;;;;;10.88;81.72;95982.64;1782274;80;21414;-85
2022/05/30 06:53:30;;;;;;;4.50;3.15;;;;;;;11.02;81.26;95978.31;1772456;80;21045;-85
2022/05/30 06:55:56;;;;;;;6.12;3.40;;;;;;;11.13;81.40;95977.77;1772280;80;20999;-85
2022/05/30 06:58:22;;;;;;;4.53;2.87;;;;;;;11.28;81.63;95975.02;1783910;80;20994;-85
2022/05/30 07:00:48;;;;;;;2.22;2.02;;;;;;;11.31;81.65;95979.32;1773958;79;21043;-86
2022/05/30 07:03:14;;;;;;;3.00;2.25;;;;;;;11.30;80.95;95979.52;1777212;79;21095;-86
2022/05/30 07:05:41;;;;;;;3.85;3.10;;;;;;;11.28;80.28;95981.52;1775963;79;20967;-86
2022/05/30 07:08:07;;;;;;;3.90;2.83;;;;;;;11.28;81.30;95981.52;1785433;80;20967;-86
2022/05/30 07:10:35;;;;;;;5.08;2.98;;;;;;;11.31;80.25;95987.13;1780855;80;20908;-86
2022/05/30 07:13:01;;;;;;;4.05;3.33;;;;;;;11.26;80.19;95986.91;1780849;80;21367;-86
2022/05/30 07:15:27;;;;;;;4.28;3.58;;;;;;;11.25;79.53;95988.41;1787754;80;21027;-87
2022/05/30 07:17:53;;;;;;;2.67;2.10;;;;;;;11.37;80.53;95992.03;1778771;80;21058;-87
2022/05/30 07:20:19;;;;;;;2.30;2.10;;;;;;;11.54;79.56;95993.27;1779107;79;21012;-85
2022/05/30 07:22:46;;;;;;;3.37;1.90;;;;;;;11.64;79.13;95989.00;1785698;80;20959;-87
2022/05/30 07:25:12;;;;;;;2.40;2.20;;;;;;;11.63;78.66;95996.52;1786952;80;21711;-86
2022/05/30 07:27:37;;;;;;;3.90;1.95;;;;;;;11.74;79.68;95997.24;1778550;80;20951;-86
2022/05/30 07:30:05;;;;;;;5.10;2.47;;;;;;;11.78;78.84;95998.44;1777685;80;21035;-86
2022/05/30 07:32:33;;;;;;;3.12;2.00;;;;;;;11.73;77.64;96008.66;1783298;80;21007;-87
2022/05/30 07:34:59;;;;;;;4.22;2.30;;;;;;;11.72;77.72;96004.45;1783679;80;20952;-87
2022/05/30 07:37:25;;;;;;;3.10;2.00;;;;;;;11.67;76.97;96013.33;1777358;79;21005;-86
2022/05/30 07:39:51;;;;;;;4.00;2.25;;;;;;;11.70;76.19;96009.02;1773060;80;21407;-86
2022/05/30 07:42:17;;;;;;;1.90;1.30;;;;;;;11.87;76.97;96001.67;1787921;80;21003;-86
2022/05/30 07:44:42;;;;;;;2.72;1.50;;;;;;;11.98;75.57;96008.90;1786578;80;20996;-85
2022/05/30 07:47:08;;;;;;;2.55;1.65;;;;;;;12.08;75.29;96001.51;1788760;80;21039;-85
2022/05/30 07:49:35;;;;;;;2.10;1.15;;;;;;;12.26;74.85;96003.00;1788450;80;21351;-85
2022/05/30 07:52:02;;;;;;;4.55;1.60;;;;;;;12.51;75.60;96003.67;1784397;80;21035;-85
2022/05/30 07:54:28;;;;;;;2.30;1.22;;;;;;;12.71;74.75;96006.27;1762643;80;21007;-85
2022/05/30 07:56:53;;;;;;;1.57;1.30;;;;;;;12.85;75.77;96013.03;1783836;80;21338;-85
2022/05/30 07:59:20;;;;;;;2.20;1.20;;;;;;;12.89;73.94;96018.16;1781133;80;20968;-85
2022/05/30 08:01:46;;;;;;;2.45;1.20;;;;;;;12.83;72.60;96017.65;1788243;80;21004;-86
2022/05/30 08:04:13;;;;;;;5.47;1.45;;;;;;;12.71;72.92;96021.91;1779275;80;21008;-85
2022/05/30 08:06:39;;;;;;;2.20;1.40;;;;;;;12.59;72.36;96029.03;1784439;80;21495;-87
2022/05/30 08:09:05;;;;;;;2.25;1.45;;;;;;;12.42;72.09;96033.56;1780531;80;21018;-85
2022/05/30 08:11:30;;;;;;;2.10;1.70;;;;;;;12.41;72.32;96035.37;1788950;80;21016;-86
2022/05/30 08:13:56;;;;;;;2.62;1.98;;;;;;;12.44;73.83;96036.77;1789699;80;21003;-83
2022/05/30 08:16:24;;;;;;;7.05;2.05;;;;;;;12.53;73.07;96038.98;1788891;80;21382;-85
2022/05/30 08:18:50;;;;;;;2.35;1.82;;;;;;;12.51;71.92;96040.16;1788254;80;21042;-85
2022/05/30 08:21:17;;;;;;;4.70;1.62;;;;;;;12.54;71.62;96038.47;1787561;80;21420;-85
2022/05/30 08:23:43;;;;;;;4.40;2.30;;;;;;;12.55;71.90;96046.09;1788290;80;21012;-84
2022/05/30 08:26:09;;;;;;;3.75;2.40;;;;;;;12.54;71.19;96044.48;1787293;80;21073;-84
2022/05/30 08:28:35;;;;;;;8.13;6.08;;;;;;;12.61;72.64;96047.88;1789354;80;21300;-84
2022/05/30 08:31:00;;;;;;;5.80;4.33;;;;;;;12.74;72.96;96048.88;1772416;80;21022;-84
2022/05/30 08:33:27;;;;;;;6.15;4.17;;;;;;;12.85;72.85;96057.35;1781746;80;20971;-85
2022/05/30 08:36:06;;;;;;;3.83;2.65;;;;;;;12.96;73.39;96050.22;1789388;80;21335;-84
2022/05/30 08:38:33;;;;;;;3.52;2.98;;;;;;;13.13;72.70;96059.20;1776978;80;21007;-85
2022/05/30 08:43:50;;;;;;;2.67;2.00;;;;;;;13.62;71.62;96060.45;1760651;80;21429;-85
2022/05/30 08:46:28;;;;;;;4.70;1.95;;;;;;;13.72;71.28;96062.63;1768481;80;20984;-84
2022/05/30 08:49:19;;;;;;;2.85;1.75;;;;;;;13.76;70.41;96062.50;1768711;80;20985;-84
2022/05/30 08:52:31;;;;;;;2.42;1.37;;;;;;;13.85;71.09;96074.82;1783127;80;20972;-85
2022/05/30 08:55:08;;;;;;;2.77;1.45;;;;;;;14.21;69.39;96065.84;1758663;80;20960;-84
2022/05/30 08:57:46;;;;;;;2.92;1.77;;;;;;;14.73;69.32;96070.39;1788802;80;21295;-85
2022/05/30 09:00:17;;;;;;;2.60;2.10;;;;;;;14.69;66.78;96075.25;1780506;80;21359;-84
2022/05/30 09:02:48;;;;;;;1.67;1.57;;;;;;;14.64;67.39;96071.66;1768278;80;21063;-84
2022/05/30 09:05:40;;;;;;;3.08;2.60;;;;;;;14.70;67.44;96074.23;1776352;80;21445;-84
2022/05/30 09:08:07;;;;;;;;;;;;;;;14.87;68.17;96066.64;1787441;80;20983;-84
2022/05/30 09:10:44;;;;;;;3.45;2.08;;;;;;;15.19;65.97;96066.52;1789574;80;20137;-84
2022/05/30 09:13:21;;;;;;;3.15;2.10;;;;;;;15.31;65.72;96064.27;1786541;80;20964;-84
2022/05/30 09:15:55;;;;;;;2.65;2.45;;;;;;;15.28;64.72;96068.61;1784583;80;20964;-84
2022/05/30 09:18:25;;;;;;;3.27;2.60;;;;;;;15.14;65.29;96069.80;1783320;80;20945;-84
2022/05/30 09:20:53;;;;;;;5.08;2.90;;;;;;;15.08;64.10;96076.39;1777116;80;21087;-84
2022/05/30 09:23:23;;;;;;;3.47;3.10;;;;;;;14.85;64.63;96086.19;1781596;80;20976;-84
2022/05/30 09:26:01;;;;;;;3.65;3.00;;;;;;;14.67;64.20;96090.87;1786374;80;20968;-84
2022/05/30 09:28:29;;;;;;;5.12;3.30;;;;;;;14.59;64.64;96085.89;1788196;80;21374;-83
2022/05/30 09:31:22;;;;;;;3.85;3.08;;;;;;;14.51;63.94;96083.05;1788883;80;20951;-84
2022/05/30 09:33:53;;;;;;;4.08;3.30;;;;;;;14.50;65.03;96083.27;1778013;80;20995;-84
2022/05/30 09:36:27;;;;;;;3.37;2.80;;;;;;;14.64;64.61;96078.20;1777884;80;20992;-84
2022/05/30 09:39:00;;;;;;;4.17;3.77;;;;;;;14.88;64.84;96078.70;1789122;80;21045;-84
2022/05/30 09:41:33;;;;;;;5.80;4.75;;;;;;;15.05;65.45;96078.94;1782660;80;21346;-84
2022/05/30 09:44:03;;;;;;;5.33;4.20;;;;;;;15.35;64.32;96079.03;1784652;80;20924;-84
2022/05/30 09:46:52;;;;;;;5.70;5.03;;;;;;;15.49;64.63;96070.52;1788235;80;20971;-85
2022/05/30 09:49:42;;;;;;;7.03;5.00;;;;;;;15.71;65.25;96072.18;1729571;83;20964;-85
2022/05/30 09:52:37;;;;;;;5.83;4.55;;;;;;;15.86;63.37;96076.01;1776237;80;21353;-84
2022/05/30 09:55:37;;;;;;;5.45;3.83;;;;;;;15.91;63.92;96076.13;1771711;80;20940;-85
2022/05/30 09:58:05;;;;;;;4.53;3.98;;;;;;;15.69;63.63;96078.95;1777850;80;21066;-85
2022/05/30 10:00:50;;;;;;;5.80;4.42;;;;;;;15.41;63.20;96079.45;1773021;80;20945;-84
2022/05/30 10:03:32;;;;;;;5.53;4.47;;;;;;;15.10;61.58;96084.31;1787415;80;21054;-85
2022/05/30 10:06:23;;;;;;;5.10;4.22;;;;;;;14.82;62.17;96075.65;1779867;80;21055;-84
2022/05/30 10:08:49;;;;;;;6.03;5.00;;;;;;;14.73;63.10;96086.59;1747187;80;21425;-85
2022/05/30 10:11:32;;;;;;;8.00;4.85;;;;;;;14.68;63.21;96085.42;1775743;80;21011;-85
2022/05/30 10:13:58;;;;;;;5.58;5.00;;;;;;;14.80;64.78;96088.63;1753797;81;21073;-85
2022/05/30 10:16:35;;;;;;;5.05;4.35;;;;;;;14.89;63.79;96083.42;1796255;80;20999;-85
2022/05/30 10:19:09;;;;;;;4.92;4.50;;;;;;;14.84;62.65;96084.08;1791783;80;20930;-85
2022/05/30 10:28:14;;;;;;;4.58;3.95;;;;;;;14.62;63.77;96090.18;1770389;80;20935;-84
2022/05/30 10:30:46;;;;;;;4.58;4.15;;;;;;;14.70;63.78;96085.20;1796812;80;21011;-82
2022/05/30 10:33:29;;;;;;;4.65;3.70;;;;;;;15.11;63.66;96086.42;1794603;80;21074;-84
2022/05/30 10:36:09;;;;;;;5.47;4.60;;;;;;;15.35;64.21;96080.34;1760143;81;20985;-84
2022/05/30 10:39:10;;;;;;;5.33;3.90;;;;;;;15.68;63.98;96076.05;1761051;81;21409;-84
2022/05/30 10:41:56;;;;;;;4.70;4.30;;;;;;;15.61;63.98;96077.42;1752742;80;21029;-84
2022/05/30 10:44:35;;;;;;;4.78;4.03;;;;;;;15.50;61.42;96088.63;1759879;80;21499;-83
2022/05/30 10:47:26;;;;;;;5.72;4.85;;;;;;;15.20;62.07;96088.55;1777883;80;21011;-84
2022/05/30 10:50:03;;;;;;;4.10;3.70;;;;;;;15.11;63.36;96087.73;1773420;80;20988;-83
2022/05/30 10:52:51;;;;;;;5.97;4.45;;;;;;;15.30;62.34;96082.81;1763787;80;20998;-83
2022/05/30 10:55:29;;;;;;;4.60;4.08;;;;;;;15.14;62.42;96089.42;1771263;80;20922;-83
2022/05/30 10:58:02;;;;;;;4.83;3.87;;;;;;;15.07;62.46;96087.37;1771254;80;20986;-84
2022/05/30 11:00:35;;;;;;;5.12;4.62;;;;;;;15.00;62.78;96086.65;1758922;80;21011;-83
2022/05/30 11:03:30;;;;;;;5.60;5.10;;;;;;;14.93;63.10;96092.44;1761496;80;21358;-82
2022/05/30 11:06:24;;;;;;;4.83;4.10;;;;;;;14.90;63.35;96087.64;1740883;80;20958;-83
2022/05/30 11:09:01;;;;;;;4.97;4.22;;;;;;;14.78;62.97;96090.66;1762235;80;20940;-83
2022/05/30 11:11:50;;;;;;;6.40;3.92;;;;;;;14.70;62.77;96091.23;1763580;80;21079;-84
2022/05/30 11:14:30;;;;;;;5.80;4.55;;;;;;;14.98;63.34;96090.79;1758251;80;20964;-84
2022/05/30 11:17:22;;;;;;;5.78;4.35;;;;;;;15.39;62.97;96080.69;1755082;80;20964;-84
2022/05/30 11:20:15;;;;;;;5.30;4.40;;;;;;;15.73;63.51;96075.37;1753260;80;21030;-84
2022/05/30 11:22:52;;;;;;;5.25;4.28;;;;;;;15.81;60.79;96080.33;1751148;80;21377;-84
2022/05/30 11:25:47;;;;;;;5.62;4.30;;;;;;;15.80;60.96;96078.22;1789230;79;21379;-84
2022/05/30 11:28:31;;;;;;;5.83;4.00;;;;;;;15.68;61.14;96078.66;1787556;80;22580;-84
2022/05/30 11:31:05;;;;;;;6.12;4.87;;;;;;;15.56;61.97;96083.01;1789945;80;20967;-84
2022/05/30 11:33:43;;;;;;;7.62;4.65;;;;;;;15.44;62.12;96086.86;1786088;80;21404;-84
2022/05/30 11:37:00;;;;;;;5.17;4.53;;;;;;;15.54;61.52;96087.16;1783733;80;20956;-84
2022/05/30 11:39:34;;;;;;;5.70;4.70;;;;;;;15.67;60.50;96090.67;1758814;80;20967;-84
2022/05/30 11:42:44;;;;;;;5.30;4.80;;;;;;;15.83;61.36;96097.41;1767467;80;21066;-85
2022/05/30 11:45:24;;;;;;;5.47;3.70;;;;;;;15.98;59.73;96087.05;1777399;80;20968;-83
2022/05/30 11:48:07;;;;;;;5.40;4.17;;;;;;;16.23;61.78;96090.31;1774423;80;20950;-84
2022/05/30 11:50:36;;;;;;;5.40;3.83;;;;;;;16.36;61.02;96088.01;1766306;80;21305;-84
2022/05/30 11:53:34;;;;;;;4.83;4.30;;;;;;;16.23;60.18;96089.00;1784711;80;20947;-83
2022/05/30 11:56:24;;;;;;;3.37;3.08;;;;;;;16.09;59.31;96090.20;1756823;80;20998;-84
2022/05/30 11:59:46;;;;;;;5.10;3.72;;;;;;;16.39;60.78;96080.48;1784362;80;20990;-84
2022/05/30 12:02:19;;;;;;;5.58;4.00;;;;;;;16.62;59.14;96084.19;1773970;80;20974;-84
2022/05/30 12:05:06;;;;;;;4.17;3.77;;;;;;;16.95;59.96;96086.29;1773793;80;20982;-84
2022/05/30 12:07:56;;;;;;;4.17;3.77;;;;;;;17.28;58.72;96083.86;1767138;80;21014;-84
2022/05/30 12:10:33;;;;;;;7.83;5.60;;;;;;;17.34;58.20;96084.24;1776954;80;21336;-84
2022/05/30 12:13:19;;;;;;;6.37;5.72;;;;;;;17.03;57.75;96089.35;1774408;80;21050;-84
2022/05/30 12:15:56;;;;;;;8.43;6.60;;;;;;;16.85;59.10;96090.78;1766174;80;20965;-83